createdAt,value
2022-10-14T00:01:30.812Z,4.00
2022-10-14T00:04:01.916Z,3.42
2022-10-14T00:06:37.516Z,3.38
2022-10-14T00:09:10.586Z,3.03
2022-10-14T00:11:41.516Z,2.70
2022-10-14T00:14:15.652Z,2.90
2022-10-14T00:16:48.650Z,2.47
2022-10-14T00:19:20.045Z,2.40
2022-10-14T00:21:54.270Z,2.22
2022-10-14T00:24:25.262Z,2.08
2022-10-14T00:26:55.972Z,2.53
2022-10-14T00:29:26.733Z,2.33
2022-10-14T00:31:57.728Z,2.50
2022-10-14T00:34:30.593Z,2.47
2022-10-14T00:37:06.973Z,2.72
2022-10-14T00:39:37.977Z,2.92
2022-10-14T00:42:08.827Z,2.50
2022-10-14T00:45:18.721Z,2.63
2022-10-14T00:47:53.604Z,2.90
2022-10-14T00:50:25.032Z,2.50
2022-10-14T00:52:59.392Z,3.60
2022-10-14T00:55:31.300Z,3.20
2022-10-14T00:58:04.429Z,3.10
2022-10-14T01:00:35.234Z,3.20
2022-10-14T01:03:11.282Z,3.13
2022-10-14T01:05:51.351Z,3.20
2022-10-14T01:08:31.395Z,3.33
2022-10-14T01:11:10.250Z,3.28
2022-10-14T01:13:45.871Z,4.10
2022-10-14T01:16:24.204Z,3.70
2022-10-14T01:19:15.689Z,3.55
2022-10-14T01:21:51.044Z,3.22
2022-10-14T01:24:52.463Z,3.67
2022-10-14T01:27:46.163Z,3.40
2022-10-14T01:30:22.630Z,3.67
2022-10-14T01:33:07.979Z,3.88
2022-10-14T01:35:59.388Z,3.60
2022-10-14T01:38:34.710Z,3.70
2022-10-14T01:41:11.685Z,3.30
2022-10-14T01:43:46.516Z,3.30
2022-10-14T01:46:25.664Z,3.53
2022-10-14T01:48:59.292Z,3.72
2022-10-14T01:51:33.909Z,4.38
2022-10-14T01:54:09.750Z,3.90
2022-10-14T01:56:41.532Z,3.33
2022-10-14T01:59:14.997Z,3.40
2022-10-14T02:01:48.319Z,4.07
2022-10-14T02:04:21.997Z,4.07
2022-10-14T02:07:01.683Z,4.38
2022-10-14T02:09:41.247Z,4.07
2022-10-14T02:12:24.140Z,4.30
2022-10-14T02:15:04.169Z,3.33
2022-10-14T02:17:41.322Z,4.20
2022-10-14T02:20:28.376Z,3.70
2022-10-14T02:23:23.955Z,3.97
2022-10-14T02:25:57.318Z,4.07
2022-10-14T02:28:33.026Z,4.82
2022-10-14T02:31:08.649Z,4.13
2022-10-14T02:33:45.632Z,4.40
2022-10-14T02:36:19.951Z,4.47
2022-10-14T02:38:51.603Z,4.80
2022-10-14T02:41:25.931Z,4.28
2022-10-14T02:43:56.891Z,4.28
2022-10-14T02:46:29.258Z,4.60
2022-10-14T02:49:02.863Z,3.92
2022-10-14T02:51:33.566Z,4.20
2022-10-14T02:54:04.828Z,4.55
2022-10-14T02:56:36.101Z,4.10
2022-10-14T02:59:06.844Z,4.35
2022-10-14T03:01:38.111Z,4.45
2022-10-14T03:04:14.676Z,4.25
2022-10-14T03:06:46.895Z,4.50
2022-10-14T03:09:18.656Z,4.43
2022-10-14T03:11:52.313Z,4.47
2022-10-14T03:14:24.921Z,4.68
2022-10-14T03:16:56.384Z,5.13
2022-10-14T03:19:31.573Z,4.70
2022-10-14T03:22:02.272Z,4.72
2022-10-14T03:24:33.877Z,4.60
2022-10-14T03:27:37.318Z,4.47
2022-10-14T03:30:14.224Z,4.90
2022-10-14T03:32:59.586Z,4.60
2022-10-14T03:36:11.434Z,4.65
2022-10-14T03:38:50.043Z,5.13
2022-10-14T03:41:30.031Z,4.82
2022-10-14T03:44:00.990Z,4.90
2022-10-14T03:46:31.912Z,4.60
2022-10-14T03:49:03.266Z,4.65
2022-10-14T03:51:37.004Z,4.70
2022-10-14T03:54:23.363Z,4.75
2022-10-14T03:56:54.340Z,4.10
2022-10-14T03:59:30.614Z,4.80
2022-10-14T04:02:01.697Z,4.45
2022-10-14T04:04:34.783Z,4.50
2022-10-14T04:07:08.141Z,4.03
2022-10-14T04:09:40.312Z,3.47
2022-10-14T04:12:13.081Z,3.63
2022-10-14T04:15:00.415Z,3.60
2022-10-14T04:17:37.537Z,4.10
2022-10-14T04:20:14.902Z,4.30
2022-10-14T04:22:48.599Z,3.83
2022-10-14T04:25:23.107Z,4.13
2022-10-14T04:27:58.394Z,4.47
2022-10-14T04:30:39.194Z,4.57
2022-10-14T04:33:12.711Z,4.53
2022-10-14T04:35:44.541Z,4.82
2022-10-14T04:38:26.534Z,4.75
2022-10-14T04:41:02.893Z,4.45
2022-10-14T04:43:34.901Z,4.30
2022-10-14T04:46:20.147Z,4.40
2022-10-14T04:48:51.213Z,4.78
2022-10-14T04:51:23.941Z,4.10
2022-10-14T04:54:31.081Z,4.60
2022-10-14T04:57:04.302Z,3.85
2022-10-14T04:59:35.329Z,3.15
2022-10-14T05:02:20.469Z,4.40
2022-10-14T05:04:55.813Z,4.30
2022-10-14T05:07:26.577Z,4.03
2022-10-14T05:10:08.212Z,3.85
2022-10-14T05:12:44.662Z,3.90
2022-10-14T05:15:16.270Z,3.60
2022-10-14T05:17:57.698Z,3.38
2022-10-14T05:20:39.907Z,3.55
2022-10-14T05:23:10.652Z,3.45
2022-10-14T05:25:45.270Z,3.63
2022-10-14T05:28:16.095Z,3.42
2022-10-14T05:30:48.634Z,4.15
2022-10-14T05:33:21.047Z,4.25
2022-10-14T05:36:00.062Z,4.22
2022-10-14T05:38:36.061Z,4.53
2022-10-14T05:41:10.391Z,4.43
2022-10-14T05:43:42.208Z,4.45
2022-10-14T05:46:15.893Z,4.38
2022-10-14T05:48:51.543Z,4.32
2022-10-14T05:51:23.532Z,4.70
2022-10-14T05:54:00.180Z,4.07
2022-10-14T05:56:36.548Z,4.60
2022-10-14T05:59:07.935Z,4.28
2022-10-14T06:01:39.631Z,4.40
2022-10-14T06:04:10.717Z,3.70
2022-10-14T06:06:43.494Z,3.58
2022-10-14T06:09:14.915Z,2.90
2022-10-14T06:11:49.236Z,3.28
2022-10-14T06:14:20.219Z,0.98
2022-10-14T06:16:53.344Z,3.35
2022-10-14T06:19:24.758Z,3.10
2022-10-14T06:21:55.955Z,3.67
2022-10-14T06:24:26.675Z,3.38
2022-10-14T06:27:01.207Z,2.88
2022-10-14T06:29:38.054Z,2.75
2022-10-14T06:32:09.516Z,2.70
2022-10-14T06:34:40.275Z,2.80
2022-10-14T06:37:11.431Z,2.50
2022-10-14T06:39:43.866Z,2.58
2022-10-14T06:42:17.218Z,2.95
2022-10-14T06:44:49.119Z,3.33
2022-10-14T06:47:19.770Z,3.38
2022-10-14T06:49:53.451Z,3.30
2022-10-14T06:52:24.258Z,3.03
2022-10-14T06:54:55.394Z,3.20
2022-10-14T06:57:28.903Z,3.08
2022-10-14T06:59:59.651Z,11.75
2022-10-14T07:02:30.524Z,19.27
2022-10-14T07:05:01.451Z,23.35
2022-10-14T07:07:32.236Z,5.03
2022-10-14T07:10:03.517Z,5.13
2022-10-14T07:12:36.953Z,4.22
2022-10-14T07:15:08.412Z,3.70
2022-10-14T07:17:39.531Z,2.80
2022-10-14T07:20:12.520Z,2.40
2022-10-14T07:22:43.664Z,2.20
2022-10-14T07:25:15.047Z,2.20
2022-10-14T07:27:49.145Z,2.20
2022-10-14T07:30:20.426Z,1.95
2022-10-14T07:32:51.702Z,2.00
2022-10-14T07:35:22.593Z,1.73
2022-10-14T07:37:53.670Z,1.65
2022-10-14T07:40:25.007Z,1.70
2022-10-14T07:42:58.654Z,1.67
2022-10-14T07:45:35.291Z,2.08
2022-10-14T07:48:06.909Z,2.00
2022-10-14T07:50:37.912Z,1.80
2022-10-14T07:53:08.818Z,1.55
2022-10-14T07:55:40.036Z,1.80
2022-10-14T07:58:14.245Z,2.42
2022-10-14T08:00:46.150Z,2.45
2022-10-14T08:03:17.159Z,1.50
2022-10-14T08:05:50.365Z,1.55
2022-10-14T08:08:23.666Z,2.00
2022-10-14T08:11:03.602Z,1.70
2022-10-14T08:13:41.942Z,1.80
2022-10-14T08:16:19.042Z,1.90
2022-10-14T08:18:51.121Z,1.63
2022-10-14T08:21:23.220Z,2.45
2022-10-14T08:23:55.153Z,2.25
2022-10-14T08:26:31.040Z,2.70
2022-10-14T08:29:06.759Z,2.25
2022-10-14T08:31:37.911Z,2.22
2022-10-14T08:34:08.831Z,2.10
2022-10-14T08:36:39.937Z,1.90
2022-10-14T08:39:11.120Z,2.08
2022-10-14T08:42:06.063Z,2.22
2022-10-14T08:44:45.937Z,1.90
2022-10-14T08:47:19.416Z,1.70
2022-10-14T08:49:58.835Z,1.85
2022-10-14T08:52:37.615Z,1.70
2022-10-14T08:55:20.153Z,1.85
2022-10-14T08:57:56.625Z,1.40
2022-10-14T09:00:32.995Z,1.67
2022-10-14T09:03:08.355Z,1.52
2022-10-14T09:05:42.181Z,1.63
2022-10-14T09:08:18.174Z,1.45
2022-10-14T09:10:49.424Z,1.42
2022-10-14T09:13:26.366Z,1.27
2022-10-14T09:16:05.324Z,1.50
2022-10-14T09:18:39.921Z,1.50
2022-10-14T09:21:48.032Z,1.30
2022-10-14T09:24:22.433Z,1.52
2022-10-14T09:29:50.807Z,1.00
2022-10-14T09:32:34.480Z,0.68
2022-10-14T09:35:05.972Z,1.02
2022-10-14T09:37:40.005Z,0.90
2022-10-14T09:40:21.065Z,0.52
2022-10-14T09:42:55.605Z,0.80
2022-10-14T09:45:27.725Z,0.80
2022-10-14T09:48:07.536Z,0.88
2022-10-14T09:50:41.583Z,0.60
2022-10-14T09:53:20.625Z,0.90
2022-10-14T09:55:55.136Z,0.70
2022-10-14T09:58:33.538Z,0.80
2022-10-14T10:01:05.491Z,0.73
2022-10-14T10:03:41.367Z,0.70
2022-10-14T10:06:14.616Z,0.63
2022-10-14T10:09:00.300Z,0.80
2022-10-14T10:11:33.659Z,0.60
2022-10-14T10:14:19.987Z,0.70
2022-10-14T10:19:47.343Z,0.70
2022-10-14T10:22:26.802Z,0.88
2022-10-14T10:25:21.314Z,0.75
2022-10-14T10:27:52.931Z,0.80
2022-10-14T10:30:27.725Z,0.90
2022-10-14T10:33:10.402Z,0.90
2022-10-14T10:36:07.550Z,1.00
2022-10-14T10:38:45.632Z,1.20
2022-10-14T10:41:28.718Z,0.93
2022-10-14T10:44:15.498Z,1.45
2022-10-14T10:47:15.739Z,1.40
2022-10-14T10:50:10.345Z,1.02
2022-10-14T10:52:56.748Z,1.20
2022-10-14T10:55:36.144Z,0.98
2022-10-14T10:58:25.216Z,0.98
2022-10-14T11:01:04.069Z,0.90
2022-10-14T11:03:52.093Z,0.73
2022-10-14T11:06:42.414Z,1.20
2022-10-14T11:09:34.681Z,1.10
2022-10-14T11:12:15.254Z,0.77
2022-10-14T11:15:12.027Z,1.15
2022-10-14T11:17:50.420Z,0.93
2022-10-14T11:20:31.129Z,0.60
2022-10-14T11:23:19.273Z,0.93
2022-10-14T11:25:58.068Z,0.77
2022-10-14T11:28:38.477Z,0.63
2022-10-14T11:31:19.806Z,1.17
2022-10-14T11:34:11.836Z,0.70
2022-10-14T11:36:55.652Z,0.98
2022-10-14T11:39:41.307Z,1.13
2022-10-14T11:42:52.838Z,0.70
2022-10-14T11:45:51.922Z,0.93
2022-10-14T11:48:37.557Z,0.95
2022-10-14T11:51:19.242Z,0.60
2022-10-14T11:53:59.257Z,0.55
2022-10-14T11:56:40.709Z,0.75
2022-10-14T11:59:24.029Z,0.93
2022-10-14T12:02:01.879Z,0.60
2022-10-14T12:04:36.257Z,0.60
2022-10-14T12:07:13.545Z,0.77
2022-10-14T12:09:49.354Z,0.60
2022-10-14T12:12:23.070Z,0.70
2022-10-14T12:15:01.707Z,0.73
2022-10-14T12:17:37.484Z,0.77
2022-10-14T12:20:22.549Z,0.65
2022-10-14T12:22:55.302Z,0.70
2022-10-14T12:25:30.819Z,0.50
2022-10-14T12:28:02.482Z,0.57
2022-10-14T12:30:47.689Z,0.63
2022-10-14T12:33:22.820Z,0.50
2022-10-14T12:35:59.575Z,0.63
2022-10-14T12:38:34.826Z,0.77
2022-10-14T12:41:36.455Z,0.70
2022-10-14T12:44:14.417Z,1.20
2022-10-14T12:46:52.367Z,1.02
2022-10-14T12:49:31.357Z,0.82
2022-10-14T12:52:06.167Z,0.40
2022-10-14T12:54:40.736Z,0.60
2022-10-14T12:57:31.481Z,0.50
2022-10-14T13:00:08.400Z,0.50
2022-10-14T13:05:31.244Z,0.95
2022-10-14T13:08:28.715Z,0.55
2022-10-14T13:11:15.416Z,1.15
2022-10-14T13:14:01.227Z,0.60
2022-10-14T13:17:09.906Z,0.65
2022-10-14T13:19:48.409Z,0.63
2022-10-14T13:22:44.095Z,0.52
2022-10-14T13:25:24.302Z,0.80
2022-10-14T13:28:11.338Z,0.95
2022-10-14T13:30:55.380Z,1.17
2022-10-14T13:33:34.748Z,0.90
2022-10-14T13:36:16.690Z,0.90
2022-10-14T13:38:54.696Z,1.60
2022-10-14T13:41:31.241Z,0.90
2022-10-14T13:46:37.516Z,1.42
2022-10-14T13:49:18.466Z,0.95
2022-10-14T13:51:54.995Z,0.93
2022-10-14T13:54:27.622Z,0.65
2022-10-14T14:02:55.121Z,0.70
2022-10-14T14:05:32.711Z,1.52
2022-10-14T14:08:36.826Z,0.90
2022-10-14T14:11:18.007Z,0.85
2022-10-14T14:14:07.919Z,0.90
2022-10-14T14:16:42.064Z,1.15
2022-10-14T14:19:22.157Z,0.90
2022-10-14T14:21:53.482Z,1.20
2022-10-14T14:24:29.874Z,0.63
2022-10-14T14:27:00.882Z,0.95
2022-10-14T14:29:35.299Z,1.00
2022-10-14T14:32:08.588Z,1.02
2022-10-14T14:34:41.614Z,0.90
2022-10-14T14:37:52.950Z,0.98
2022-10-14T14:40:21.125Z,1.30
2022-10-14T14:42:55.455Z,0.88
2022-10-14T14:45:29.592Z,0.90
2022-10-14T14:48:04.994Z,1.10
2022-10-14T14:50:40.444Z,1.20
2022-10-14T14:53:15.492Z,1.23
2022-10-14T14:56:00.641Z,0.90
2022-10-14T14:58:35.332Z,1.33
2022-10-14T15:01:08.001Z,1.20
2022-10-14T15:04:13.163Z,1.10
2022-10-14T15:06:50.979Z,1.45
2022-10-14T15:09:27.454Z,1.20
2022-10-14T15:12:03.402Z,1.98
2022-10-14T15:14:37.913Z,1.50
2022-10-14T15:17:09.327Z,1.00
2022-10-14T15:19:40.773Z,0.52
2022-10-14T15:22:34.923Z,0.65
2022-10-14T15:25:10.258Z,0.85
2022-10-14T15:27:53.488Z,0.80
2022-10-14T15:30:31.952Z,1.00
2022-10-14T15:33:05.378Z,0.77
2022-10-14T15:35:38.496Z,0.60
2022-10-14T15:38:16.428Z,0.80
2022-10-14T15:40:48.471Z,0.70
2022-10-14T15:43:28.458Z,0.40
2022-10-14T15:46:13.449Z,0.85
2022-10-14T15:48:50.411Z,0.70
2022-10-14T15:51:23.769Z,0.73
2022-10-14T15:53:54.977Z,0.40
2022-10-14T15:56:25.790Z,0.47
2022-10-14T15:58:59.175Z,0.68
2022-10-14T16:01:30.023Z,0.60
2022-10-14T16:04:01.345Z,0.80
2022-10-14T16:06:32.996Z,1.10
2022-10-14T16:09:04.119Z,0.80
2022-10-14T16:11:35.004Z,0.80
2022-10-14T16:14:09.239Z,5.05
2022-10-14T16:16:43.809Z,7.15
2022-10-14T16:19:15.186Z,8.50
2022-10-14T16:21:47.003Z,1.83
2022-10-14T16:24:25.500Z,2.30
2022-10-14T16:26:57.485Z,1.95
2022-10-14T16:29:31.339Z,7.07
2022-10-14T16:32:02.680Z,0.80
2022-10-14T16:34:33.744Z,1.02
2022-10-14T16:37:04.814Z,1.50
2022-10-14T16:39:35.671Z,4.22
2022-10-14T16:42:08.404Z,5.50
2022-10-14T16:44:41.965Z,5.05
2022-10-14T16:47:22.672Z,3.80
2022-10-14T16:49:57.286Z,4.15
2022-10-14T16:52:28.102Z,1.30
2022-10-14T16:54:59.197Z,1.60
2022-10-14T16:57:32.617Z,1.48
2022-10-14T17:00:07.191Z,1.60
2022-10-14T17:02:38.715Z,1.73
2022-10-14T17:05:11.513Z,1.67
2022-10-14T17:07:43.615Z,1.80
2022-10-14T17:10:14.914Z,1.80
2022-10-14T17:12:46.057Z,2.33
2022-10-14T17:15:20.220Z,2.88
2022-10-14T17:17:51.810Z,4.20
2022-10-14T17:20:24.029Z,5.90
2022-10-14T17:22:57.081Z,5.18
2022-10-14T17:25:28.352Z,4.65
2022-10-14T17:27:59.277Z,3.70
2022-10-14T17:30:32.865Z,3.03
2022-10-14T17:33:03.906Z,3.03
2022-10-14T17:35:37.266Z,2.40
2022-10-14T17:38:08.424Z,2.47
2022-10-14T17:40:39.543Z,2.45
2022-10-14T17:43:11.037Z,3.00
2022-10-14T17:45:44.913Z,1.58
2022-10-14T17:48:18.292Z,1.52
2022-10-14T17:50:51.368Z,1.27
2022-10-14T17:53:22.191Z,1.40
2022-10-14T17:55:55.400Z,1.35
2022-10-14T17:58:28.440Z,1.40
2022-10-14T18:01:06.859Z,1.85
2022-10-14T18:03:39.230Z,1.58
2022-10-14T18:06:15.787Z,1.98
2022-10-14T18:08:48.647Z,1.23
2022-10-14T18:11:20.004Z,1.30
2022-10-14T18:13:56.023Z,1.25
2022-10-14T18:16:33.634Z,1.05
2022-10-14T18:19:06.103Z,1.55
2022-10-14T18:21:39.257Z,1.40
2022-10-14T18:24:11.344Z,1.50
2022-10-14T18:26:42.629Z,1.70
2022-10-14T18:29:13.505Z,2.15
2022-10-14T18:31:47.272Z,2.38
2022-10-14T18:34:18.846Z,3.10
2022-10-14T18:36:50.318Z,4.18
2022-10-14T18:39:21.420Z,4.25
2022-10-14T18:41:52.641Z,4.68
2022-10-14T18:44:23.710Z,5.05
2022-10-14T18:46:58.300Z,5.10
2022-10-14T18:49:29.392Z,5.15
2022-10-14T18:52:00.182Z,3.65
2022-10-14T18:54:32.848Z,4.60
2022-10-14T18:57:05.305Z,4.35
2022-10-14T18:59:36.422Z,3.53
2022-10-14T19:02:11.882Z,2.60
2022-10-14T19:04:42.887Z,2.88
2022-10-14T19:07:14.653Z,2.83
2022-10-14T19:09:46.458Z,2.38
2022-10-14T19:12:29.625Z,2.60
2022-10-14T19:15:00.817Z,2.13
2022-10-14T19:17:35.051Z,2.55
2022-10-14T19:20:08.678Z,2.33
2022-10-14T19:22:45.023Z,2.60
2022-10-14T19:25:16.774Z,2.75
2022-10-14T19:27:48.086Z,2.60
2022-10-14T19:30:19.138Z,2.30
2022-10-14T19:32:55.633Z,1.30
2022-10-14T19:35:27.496Z,2.75
2022-10-14T19:37:59.351Z,2.25
2022-10-14T19:40:30.877Z,2.20
2022-10-14T19:43:02.713Z,2.30
2022-10-14T19:45:34.316Z,2.42
2022-10-14T19:48:09.048Z,2.42
2022-10-14T19:50:44.679Z,2.38
2022-10-14T19:53:16.190Z,2.70
2022-10-14T19:55:47.784Z,1.90
2022-10-14T19:58:19.662Z,1.80
2022-10-14T20:00:51.824Z,1.90
2022-10-14T20:03:27.135Z,1.60
2022-10-14T20:06:08.315Z,2.33
2022-10-14T20:08:39.799Z,1.90
2022-10-14T20:11:13.820Z,1.63
2022-10-14T20:13:46.607Z,1.80
2022-10-14T20:16:18.363Z,1.20
2022-10-14T20:18:52.437Z,1.30
2022-10-14T20:21:23.909Z,1.05
2022-10-14T20:23:55.192Z,1.50
2022-10-14T20:29:17.863Z,1.70
2022-10-14T20:31:48.724Z,1.50
2022-10-14T20:34:23.192Z,1.48
2022-10-14T20:36:54.471Z,1.17
2022-10-14T20:39:26.498Z,1.33
2022-10-14T20:41:57.492Z,1.40
2022-10-14T20:44:28.859Z,1.40
2022-10-14T20:46:59.749Z,1.13
2022-10-14T20:49:33.301Z,1.50
2022-10-14T20:52:04.377Z,1.27
2022-10-14T20:54:35.147Z,1.20
2022-10-14T20:57:05.958Z,1.60
2022-10-14T20:59:40.614Z,1.70
2022-10-14T21:02:19.468Z,1.38
2022-10-14T21:04:54.959Z,1.70
2022-10-14T21:07:26.516Z,1.60
2022-10-14T21:09:57.648Z,1.58
2022-10-14T21:12:28.841Z,1.20
2022-10-14T21:14:59.734Z,1.20
2022-10-14T21:17:30.862Z,1.45
2022-10-14T21:20:04.562Z,1.30
2022-10-14T21:22:35.555Z,1.30
2022-10-14T21:25:07.284Z,1.30
2022-10-14T21:27:38.262Z,1.50
2022-10-14T21:30:10.857Z,1.52
2022-10-14T21:32:42.255Z,2.60
2022-10-14T21:35:15.989Z,1.27
2022-10-14T21:37:47.153Z,1.25
2022-10-14T21:40:18.440Z,1.10
2022-10-14T21:42:49.458Z,2.10
2022-10-14T21:45:20.536Z,5.22
2022-10-14T21:47:53.114Z,3.60
2022-10-14T21:50:30.088Z,8.70
2022-10-14T21:53:01.412Z,3.20
2022-10-14T21:55:32.356Z,4.55
2022-10-14T21:58:03.243Z,1.40
2022-10-14T22:00:34.067Z,1.17
2022-10-14T22:03:05.019Z,1.88
2022-10-14T22:05:39.233Z,1.27
2022-10-14T22:08:10.255Z,1.20
2022-10-14T22:10:45.403Z,1.10
2022-10-14T22:13:17.400Z,1.08
2022-10-14T22:15:48.532Z,0.88
2022-10-14T22:18:19.284Z,1.63
2022-10-14T22:20:53.714Z,0.90
2022-10-14T22:23:24.391Z,0.90
2022-10-14T22:25:55.109Z,0.75
2022-10-14T22:28:25.985Z,0.73
2022-10-14T22:30:57.990Z,0.73
2022-10-14T22:33:28.702Z,0.77
2022-10-14T22:36:12.399Z,1.00
2022-10-14T22:38:45.531Z,0.88
2022-10-14T22:41:17.753Z,0.63
2022-10-14T22:43:53.093Z,0.60
2022-10-14T22:46:25.299Z,0.57
2022-10-14T22:48:57.834Z,0.50
2022-10-14T22:51:33.151Z,0.57
2022-10-14T22:54:04.041Z,0.50
2022-10-14T22:56:35.652Z,0.73
2022-10-14T22:59:08.261Z,0.60
2022-10-14T23:01:39.704Z,0.57
2022-10-14T23:04:10.563Z,0.57
2022-10-14T23:06:49.527Z,0.55
2022-10-14T23:09:20.363Z,0.88
2022-10-14T23:11:51.205Z,0.60
2022-10-14T23:14:21.889Z,0.60
2022-10-14T23:16:52.533Z,0.45
2022-10-14T23:19:23.161Z,0.75
2022-10-14T23:21:56.913Z,0.70
2022-10-14T23:24:28.423Z,0.38
2022-10-14T23:26:59.079Z,0.50
2022-10-14T23:29:29.744Z,0.60
2022-10-14T23:32:00.402Z,0.60
2022-10-14T23:34:31.096Z,0.47
2022-10-14T23:37:04.515Z,0.43
2022-10-14T23:39:35.431Z,0.35
2022-10-14T23:42:06.508Z,0.38
2022-10-14T23:44:37.474Z,0.30
2022-10-14T23:47:08.477Z,0.20
2022-10-14T23:49:39.491Z,0.45
2022-10-14T23:52:12.722Z,0.22
2022-10-14T23:54:43.505Z,0.30
2022-10-14T23:57:15.185Z,0.30
2022-10-14T23:59:45.957Z,0.20
